Time;durP1;ratioP1;P1;durP2;ratioP2;P2;SDS_P1;SDS_P2;PMS_P1;PMS_P2;Temp;Humidity;BMP_temperature;BMP_pressure;BME280_temperature;BME280_humidity;BME280_pressure;Samples;Min_cycle;Max_cycle;Signal;HPM_P1;HPM_P2
2023/04/20 00:01:45;;;;;;;4.03;3.63;;;5.00;99.90;4.90;100888.00;;;;4958986;28;87941;-64
2023/04/20 00:04:11;;;;;;;8.67;5.33;;;5.00;99.90;4.90;100892.00;;;;4952222;28;87101;-63
2023/04/20 00:06:37;;;;;;;4.43;3.43;;;5.00;99.90;4.90;100897.00;;;;4951753;28;110068;-63
2023/04/20 00:09:03;;;;;;;7.53;4.10;;;5.00;99.90;4.80;100890.00;;;;4951017;28;104438;-63
2023/04/20 00:11:29;;;;;;;6.00;4.33;;;5.00;99.90;4.80;100886.00;;;;4952879;28;89592;-63
2023/04/20 00:13:55;;;;;;;4.20;3.80;;;5.00;99.90;4.80;100890.00;;;;4951421;28;88124;-63
2023/04/20 00:16:20;;;;;;;3.33;3.03;;;5.10;99.90;4.80;100880.00;;;;4953823;28;103361;-63
2023/04/20 00:18:46;;;;;;;7.23;3.23;;;5.00;99.90;4.80;100879.00;;;;4953179;28;117910;-63
2023/04/20 00:21:12;;;;;;;5.30;3.63;;;5.00;99.90;4.80;100889.00;;;;4954160;28;89121;-62
2023/04/20 00:23:38;;;;;;;5.20;4.60;;;5.00;99.90;4.80;100873.00;;;;4949672;28;108781;-65
2023/04/20 00:26:04;;;;;;;6.97;3.83;;;5.00;99.90;4.80;100889.00;;;;4949993;28;117984;-64
2023/04/20 00:28:30;;;;;;;3.83;3.43;;;5.00;99.90;4.80;100886.00;;;;4953930;28;105585;-64
2023/04/20 00:30:55;;;;;;;5.67;3.73;;;4.90;99.90;4.80;100888.00;;;;4950592;28;87907;-65
2023/04/20 00:33:21;;;;;;;6.27;5.03;;;5.00;99.90;4.80;100890.00;;;;4953915;28;99240;-65
2023/04/20 00:35:46;;;;;;;3.53;3.13;;;4.90;99.90;4.80;100880.00;;;;4953586;28;119055;-64
2023/04/20 00:38:12;;;;;;;5.67;4.77;;;5.50;99.90;4.80;100888.00;;;;4952707;28;106164;-64
2023/04/20 00:40:38;;;;;;;5.37;4.23;;;5.00;99.90;4.80;100878.00;;;;4949945;28;108547;-64
2023/04/20 00:43:13;;;;;;;6.07;3.77;;;5.00;99.90;4.80;100880.00;;;;4949903;28;108284;-64
2023/04/20 00:45:39;;;;;;;5.40;3.33;;;5.00;99.90;4.80;100875.00;;;;4952467;28;88377;-66
2023/04/20 00:48:06;;;;;;;6.63;4.67;;;5.00;99.90;4.80;100873.00;;;;4952131;28;88079;-64
2023/04/20 00:50:33;;;;;;;4.27;3.57;;;5.00;99.90;4.80;100868.00;;;;4949176;28;88274;-64
2023/04/20 00:53:00;;;;;;;4.70;3.97;;;5.00;99.90;4.80;100878.00;;;;4952511;28;87070;-64
2023/04/20 00:55:27;;;;;;;4.20;3.37;;;4.90;99.90;4.80;100873.00;;;;4956860;28;89883;-64
2023/04/20 00:57:52;;;;;;;4.23;3.77;;;4.90;99.90;4.70;100876.00;;;;4956147;28;88918;-64
2023/04/20 01:00:19;;;;;;;5.63;3.73;;;4.90;99.90;4.70;100881.00;;;;4952336;28;111517;-64
2023/04/20 01:02:44;;;;;;;7.50;4.07;;;4.90;99.90;4.70;100879.00;;;;4951982;28;88029;-64
2023/04/20 01:05:10;;;;;;;7.70;4.40;;;4.90;99.90;4.70;100879.00;;;;4951372;28;117701;-63
2023/04/20 01:07:36;;;;;;;4.07;3.63;;;4.90;99.90;4.70;100870.00;;;;4982929;27;117448;-64
2023/04/20 01:10:03;;;;;;;4.33;3.93;;;4.90;99.90;4.70;100874.00;;;;4951140;28;110309;-64
2023/04/20 01:12:28;;;;;;;4.47;3.63;;;4.90;99.90;4.70;100870.00;;;;4954231;28;87822;-63
2023/04/20 01:14:54;;;;;;;6.90;4.73;;;4.90;99.90;4.70;100876.00;;;;4950783;28;108597;-65
2023/04/20 01:17:21;;;;;;;7.13;3.83;;;4.90;99.90;4.70;100874.00;;;;4951845;28;117020;-64
2023/04/20 01:19:47;;;;;;;8.93;5.63;;;4.90;99.90;4.70;100877.00;;;;4947242;28;89948;-65
2023/04/20 01:22:17;;;;;;;5.07;3.80;;;4.80;99.90;4.70;100875.00;;;;4952164;28;88013;-64
2023/04/20 01:24:43;;;;;;;4.40;4.00;;;4.80;99.90;4.60;100868.00;;;;4966219;28;90370;-64
2023/04/20 01:27:09;;;;;;;4.00;3.50;;;4.80;99.90;4.60;100858.00;;;;4953774;28;89377;-65
2023/04/20 01:29:34;;;;;;;6.73;3.57;;;4.80;99.90;4.50;100863.00;;;;4954567;28;87675;-65
2023/04/20 01:32:00;;;;;;;4.50;3.70;;;5.20;99.90;4.40;100868.00;;;;4956214;28;107304;-65
2023/04/20 01:34:26;;;;;;;5.30;4.10;;;4.70;99.90;4.40;100865.00;;;;4951040;28;116826;-65
2023/04/20 01:36:52;;;;;;;5.43;3.40;;;4.60;99.90;4.30;100865.00;;;;4958895;28;119233;-65
2023/04/20 01:39:18;;;;;;;4.83;3.63;;;4.50;99.90;4.20;100862.00;;;;4954892;28;109146;-65
2023/04/20 01:41:44;;;;;;;8.63;5.30;;;4.50;99.90;4.20;100864.00;;;;4957932;28;87260;-65
2023/04/20 01:44:10;;;;;;;6.40;4.63;;;4.40;99.90;4.20;100853.00;;;;4956133;28;89137;-65
2023/04/20 01:46:39;;;;;;;5.97;4.53;;;4.40;99.90;4.20;100860.00;;;;4953246;28;116933;-65
2023/04/20 01:49:05;;;;;;;8.60;3.97;;;4.40;99.90;4.20;100858.00;;;;4953581;28;89134;-65
2023/04/20 01:51:35;;;;;;;4.03;3.40;;;4.40;99.90;4.20;100860.00;;;;4954658;28;98821;-65
2023/04/20 01:54:02;;;;;;;4.23;3.37;;;4.30;99.90;4.20;100854.00;;;;4955259;28;88288;-65
2023/04/20 01:56:28;;;;;;;4.87;4.23;;;4.40;99.90;4.20;100866.00;;;;4955647;28;88863;-64
2023/04/20 01:58:54;;;;;;;4.17;3.77;;;4.40;99.90;4.20;100868.00;;;;4953077;28;109654;-64
2023/04/20 02:01:20;;;;;;;6.67;4.73;;;4.30;99.90;4.10;100856.00;;;;4954860;28;88087;-64
2023/04/20 02:03:45;;;;;;;5.93;4.47;;;4.30;99.90;4.10;100860.00;;;;4953201;28;89037;-64
2023/04/20 02:06:11;;;;;;;4.50;3.77;;;4.30;99.90;4.10;100869.00;;;;4955280;28;88015;-65
2023/04/20 02:08:37;;;;;;;7.47;4.93;;;4.30;99.90;4.20;100867.00;;;;4953703;28;109793;-65
2023/04/20 02:11:02;;;;;;;6.17;4.23;;;4.70;99.90;4.20;100867.00;;;;4956944;28;108705;-65
2023/04/20 02:13:28;;;;;;;12.27;4.67;;;4.40;99.90;4.30;100866.00;;;;4953459;28;118440;-66
2023/04/20 02:15:54;;;;;;;6.30;4.00;;;4.40;99.90;4.30;100862.00;;;;4950783;28;117019;-65
2023/04/20 02:18:20;;;;;;;6.37;4.87;;;5.20;99.90;4.30;100864.00;;;;4985440;27;88605;-67
2023/04/20 02:20:46;;;;;;;5.83;4.17;;;4.50;99.90;4.40;100876.00;;;;4953676;28;87990;-64
2023/04/20 02:23:11;;;;;;;4.70;3.93;;;4.60;99.90;4.40;100872.00;;;;4955692;28;116786;-64
2023/04/20 02:25:37;;;;;;;5.27;4.53;;;4.60;99.90;4.50;100862.00;;;;4954364;28;118239;-65
2023/04/20 02:28:03;;;;;;;5.07;4.10;;;4.60;99.90;4.50;100866.00;;;;4954901;28;92732;-65
2023/04/20 02:30:29;;;;;;;4.83;3.67;;;4.70;99.90;4.60;100876.00;;;;4953389;28;87078;-64
2023/04/20 02:32:55;;;;;;;3.83;2.87;;;4.70;99.90;4.60;100865.00;;;;4952704;28;88038;-64
2023/04/20 02:35:21;;;;;;;5.13;3.67;;;4.70;99.90;4.60;100876.00;;;;4954192;28;98225;-64
2023/04/20 02:37:47;;;;;;;4.77;3.87;;;4.80;99.90;4.70;100875.00;;;;4953133;28;88683;-65
2023/04/20 02:40:13;;;;;;;2.80;2.60;;;4.80;99.90;4.70;100876.00;;;;4952611;28;87721;-65
2023/04/20 02:42:39;;;;;;;6.43;3.73;;;4.80;99.90;4.70;100885.00;;;;4953407;28;88902;-65
2023/04/20 02:45:05;;;;;;;4.00;3.27;;;4.90;99.90;4.60;100878.00;;;;4936920;28;117316;-64
2023/04/20 02:47:31;;;;;;;4.63;3.77;;;4.80;99.90;4.60;100877.00;;;;4956941;28;99114;-64
2023/04/20 02:49:56;;;;;;;4.53;3.57;;;4.80;99.90;4.60;100878.00;;;;4950342;28;109062;-65
2023/04/20 02:52:22;;;;;;;3.77;3.30;;;4.80;99.90;4.60;100869.00;;;;4951888;28;117940;-64
2023/04/20 02:54:48;;;;;;;4.43;3.33;;;4.80;99.90;4.60;100882.00;;;;4949891;28;88225;-64
2023/04/20 02:57:13;;;;;;;3.93;3.37;;;4.80;99.90;4.60;100870.00;;;;4951816;28;109658;-65
2023/04/20 02:59:39;;;;;;;4.37;3.67;;;4.70;99.90;4.60;100869.00;;;;4950912;28;87826;-65
2023/04/20 03:02:05;;;;;;;3.87;2.87;;;4.70;99.90;4.60;100872.00;;;;4953976;28;89071;-65
2023/04/20 03:04:31;;;;;;;5.53;4.13;;;5.40;99.90;4.60;100872.00;;;;4954630;28;118266;-66
2023/04/20 03:06:57;;;;;;;4.80;3.13;;;4.70;99.90;4.60;100869.00;;;;4955351;28;102851;-66
2023/04/20 03:09:24;;;;;;;3.60;2.97;;;4.80;99.90;4.50;100875.00;;;;4955311;28;87930;-65
2023/04/20 03:11:50;;;;;;;2.97;2.67;;;5.10;99.90;4.50;100869.00;;;;4955415;28;88580;-66
2023/04/20 03:14:16;;;;;;;4.70;3.40;;;4.60;99.90;4.50;100872.00;;;;4952837;28;109777;-67
2023/04/20 03:16:42;;;;;;;6.97;3.87;;;4.70;99.90;4.50;100873.00;;;;4954219;28;87769;-67
2023/04/20 03:19:07;;;;;;;3.40;3.10;;;4.70;99.90;4.50;100875.00;;;;4955302;28;87181;-66
2023/04/20 03:21:33;;;;;;;4.33;3.20;;;4.70;99.90;4.50;100876.00;;;;4956958;28;113031;-67
2023/04/20 03:24:00;;;;;;;3.77;2.67;;;4.70;99.90;4.50;100861.00;;;;4954633;28;103405;-66
2023/04/20 03:26:25;;;;;;;7.70;3.43;;;4.60;99.90;4.40;100868.00;;;;4952784;28;89287;-66
2023/04/20 03:28:51;;;;;;;3.07;2.83;;;4.70;99.90;4.40;100860.00;;;;4954140;28;108591;-67
2023/04/20 03:31:17;;;;;;;3.57;2.90;;;4.60;99.90;4.30;100865.00;;;;4950786;28;119142;-67
2023/04/20 03:33:43;;;;;;;6.33;2.90;;;4.60;99.90;4.30;100865.00;;;;4956361;28;118003;-68
2023/04/20 03:36:12;;;;;;;4.63;2.30;;;4.50;99.90;4.20;100870.00;;;;4945478;28;109975;-66
2023/04/20 03:38:38;;;;;;;3.20;2.43;;;4.50;99.90;4.20;100871.00;;;;4953044;28;87874;-66
2023/04/20 03:41:04;;;;;;;4.20;3.77;;;4.40;99.90;4.10;100874.00;;;;4953064;28;120505;-68
2023/04/20 03:43:30;;;;;;;3.67;2.60;;;4.30;99.90;4.10;100874.00;;;;4956793;28;88583;-68
2023/04/20 03:45:56;;;;;;;4.33;2.80;;;4.30;99.90;4.10;100883.00;;;;4953597;28;87950;-65
2023/04/20 03:48:21;;;;;;;6.10;2.63;;;4.30;99.90;4.10;100882.00;;;;4953715;28;88302;-66
2023/04/20 03:50:47;;;;;;;4.17;3.87;;;4.40;99.90;4.20;100886.00;;;;4950544;28;116129;-66
2023/04/20 03:53:13;;;;;;;5.33;2.93;;;4.60;99.90;4.20;100884.00;;;;4953351;28;117672;-67
2023/04/20 03:55:38;;;;;;;3.47;3.13;;;4.40;99.90;4.20;100887.00;;;;4948936;28;108523;-65
2023/04/20 03:58:05;;;;;;;5.30;3.37;;;5.10;99.90;4.20;100893.00;;;;4954025;28;97486;-66
2023/04/20 04:00:31;;;;;;;3.87;3.03;;;4.40;99.90;4.20;100891.00;;;;4946156;27;88911;-67
2023/04/20 04:02:57;;;;;;;4.33;3.97;;;4.40;99.90;4.30;100890.00;;;;4953667;28;108255;-66
2023/04/20 04:05:24;;;;;;;7.40;3.63;;;4.40;99.90;4.30;100894.00;;;;4951926;28;100512;-66
2023/04/20 04:07:50;;;;;;;5.77;4.20;;;4.40;99.90;4.40;100905.00;;;;4950367;28;108420;-66
2023/04/20 04:10:17;;;;;;;6.40;4.00;;;4.50;99.90;4.40;100902.00;;;;4952037;28;88803;-68
2023/04/20 04:12:44;;;;;;;8.87;4.73;;;4.60;99.90;4.40;100897.00;;;;4951309;28;88304;-65
2023/04/20 04:15:11;;;;;;;6.17;4.17;;;4.60;99.90;4.40;100905.00;;;;4952125;28;88821;-68
2023/04/20 04:17:37;;;;;;;4.37;3.90;;;4.60;99.90;4.50;100904.00;;;;4950233;28;90659;-65
2023/04/20 04:20:03;;;;;;;5.30;3.90;;;4.60;99.90;4.50;100899.00;;;;4957355;28;108229;-65
2023/04/20 04:22:29;;;;;;;6.10;4.30;;;4.70;99.90;4.60;100906.00;;;;4947316;28;109544;-66
2023/04/20 04:24:55;;;;;;;4.00;3.57;;;4.70;99.90;4.60;100910.00;;;;4952047;28;101883;-67
2023/04/20 04:27:21;;;;;;;5.67;4.53;;;4.90;99.90;4.60;100907.00;;;;4952732;28;108667;-64
2023/04/20 04:29:48;;;;;;;6.00;4.23;;;4.70;99.90;4.50;100924.00;;;;4952060;28;88314;-66
2023/04/20 04:32:15;;;;;;;7.00;3.70;;;4.70;99.90;4.50;100917.00;;;;4950899;28;90111;-68
2023/04/20 04:34:43;;;;;;;4.63;3.10;;;4.70;99.90;4.40;100920.00;;;;4951037;28;88078;-66
2023/04/20 04:37:13;;;;;;;5.57;4.43;;;4.60;99.90;4.30;100926.00;;;;4952330;28;87608;-67
2023/04/20 04:39:38;;;;;;;5.07;4.10;;;4.50;99.90;4.20;100927.00;;;;4952505;28;89007;-64
2023/04/20 04:42:04;;;;;;;5.73;4.63;;;4.40;99.90;4.20;100928.00;;;;4947906;28;90740;-65
2023/04/20 04:44:30;;;;;;;4.37;3.97;;;4.40;99.90;4.20;100928.00;;;;4948147;28;110255;-65
2023/04/20 04:46:56;;;;;;;5.37;3.40;;;4.40;99.90;4.20;100929.00;;;;4947911;28;88364;-64
2023/04/20 04:49:25;;;;;;;4.00;3.47;;;4.40;99.90;4.20;100920.00;;;;4944733;28;117372;-65
2023/04/20 04:51:51;;;;;;;7.00;4.67;;;4.30;99.90;4.20;100922.00;;;;4945773;28;88066;-65
2023/04/20 04:54:17;;;;;;;5.33;4.03;;;4.40;99.90;4.30;100938.00;;;;4950562;28;111414;-65
2023/04/20 04:56:42;;;;;;;5.73;4.47;;;4.40;99.90;4.20;100935.00;;;;4945305;28;107646;-68
2023/04/20 04:59:08;;;;;;;5.27;4.03;;;4.40;99.90;4.10;100926.00;;;;4947197;28;117828;-65
2023/04/20 05:01:33;;;;;;;5.87;4.50;;;4.30;99.90;4.10;100938.00;;;;4947272;28;104697;-64
2023/04/20 05:04:00;;;;;;;7.13;3.57;;;4.30;99.90;4.10;100939.00;;;;4945986;28;108218;-64
2023/04/20 05:06:25;;;;;;;6.37;4.27;;;4.40;99.90;4.10;100933.00;;;;4951966;28;87952;-64
2023/04/20 05:08:51;;;;;;;6.13;3.63;;;4.30;99.90;4.10;100938.00;;;;4951060;28;117339;-66
2023/04/20 05:11:17;;;;;;;5.90;4.63;;;4.30;99.90;4.10;100937.00;;;;4949664;28;117515;-65
2023/04/20 05:13:42;;;;;;;5.20;3.37;;;4.30;99.90;4.10;100938.00;;;;4952700;28;106061;-65
2023/04/20 05:16:08;;;;;;;4.57;3.13;;;4.30;99.90;4.10;100923.00;;;;4950692;28;109009;-65
2023/04/20 05:18:33;;;;;;;3.87;3.47;;;4.20;99.90;4.10;100926.00;;;;4951249;28;118085;-65
2023/04/20 05:20:59;;;;;;;6.90;4.30;;;4.30;99.90;4.10;100919.00;;;;4951161;28;114450;-66
2023/04/20 05:23:25;;;;;;;3.23;3.00;;;4.30;99.90;4.00;100915.00;;;;4954189;28;110358;-66
2023/04/20 05:25:50;;;;;;;3.87;2.73;;;4.60;99.90;4.00;100925.00;;;;4952342;28;108044;-65
2023/04/20 05:28:17;;;;;;;4.40;3.40;;;4.20;99.90;4.00;100936.00;;;;4952039;28;88981;-66
2023/04/20 05:30:43;;;;;;;4.67;3.43;;;4.20;99.90;4.00;100932.00;;;;4953927;28;88915;-65
2023/04/20 05:33:08;;;;;;;4.33;2.83;;;4.20;99.90;4.10;100932.00;;;;4951469;28;101711;-66
2023/04/20 05:35:34;;;;;;;4.93;3.73;;;4.20;99.90;4.10;100936.00;;;;4950563;28;87984;-65
2023/04/20 05:38:04;;;;;;;7.37;4.40;;;4.30;99.90;4.10;100945.00;;;;4953332;28;88721;-65
2023/04/20 05:40:33;;;;;;;5.80;4.23;;;4.30;99.90;4.20;100943.00;;;;4953612;28;88202;-64
2023/04/20 05:42:58;;;;;;;4.93;3.73;;;5.00;99.90;4.20;100942.00;;;;4954647;28;87960;-65
2023/04/20 05:45:24;;;;;;;5.87;4.30;;;4.30;99.90;4.20;100954.00;;;;4947951;28;110696;-65
2023/04/20 05:47:54;;;;;;;5.60;3.40;;;4.40;99.90;4.20;100957.00;;;;4948834;28;117160;-65
2023/04/20 05:50:25;;;;;;;9.70;4.97;;;4.30;99.90;4.20;100962.00;;;;4949755;28;87825;-66
2023/04/20 05:52:51;;;;;;;7.20;3.93;;;4.30;99.90;4.20;100947.00;;;;4951667;28;100176;-65
2023/04/20 05:55:18;;;;;;;8.57;4.97;;;4.30;99.90;4.20;100961.00;;;;4952579;28;100745;-65
2023/04/20 05:57:44;;;;;;;6.80;4.13;;;4.40;99.90;4.30;100965.00;;;;4950309;28;87927;-66
2023/04/20 06:00:11;;;;;;;4.37;3.97;;;4.40;99.90;4.40;100961.00;;;;4954023;28;117368;-65
2023/04/20 06:02:37;;;;;;;4.30;3.67;;;4.50;99.90;4.50;100953.00;;;;4953672;28;88272;-65
2023/04/20 06:05:03;;;;;;;7.80;4.60;;;4.60;99.90;4.60;100955.00;;;;4953070;28;88049;-67
2023/04/20 06:07:29;;;;;;;7.57;4.17;;;4.70;99.90;4.70;100960.00;;;;4951136;28;97603;-64
2023/04/20 06:09:56;;;;;;;5.93;4.40;;;4.70;99.90;4.80;100939.00;;;;4951492;28;105665;-65
2023/04/20 06:12:21;;;;;;;6.03;5.10;;;4.90;99.90;4.90;100943.00;;;;4952044;28;87873;-67
2023/04/20 06:14:47;;;;;;;5.90;4.20;;;5.00;99.90;5.00;100947.00;;;;4954455;28;88892;-65
2023/04/20 06:17:13;;;;;;;7.30;4.43;;;5.00;99.90;5.00;100965.00;;;;4952805;28;118769;-67
2023/04/20 06:19:39;;;;;;;4.27;3.67;;;5.10;99.90;4.90;100964.00;;;;4957928;28;89524;-65
2023/04/20 06:22:07;;;;;;;7.77;4.40;;;5.10;99.90;5.00;100969.00;;;;4959009;28;87608;-64
2023/04/20 06:24:34;;;;;;;4.83;4.13;;;5.10;99.90;5.00;100978.00;;;;4954809;28;87959;-67
2023/04/20 06:27:00;;;;;;;6.30;3.80;;;5.20;99.90;5.00;100955.00;;;;4955975;28;88819;-65
2023/04/20 06:29:27;;;;;;;5.03;4.27;;;5.10;99.90;5.10;100960.00;;;;4949442;28;88966;-66
2023/04/20 06:31:53;;;;;;;4.63;4.17;;;5.20;99.90;5.20;100966.00;;;;4954826;28;87976;-64
2023/04/20 06:34:18;;;;;;;4.23;3.83;;;5.20;99.90;5.20;100963.00;;;;4954889;28;102670;-65
2023/04/20 06:36:44;;;;;;;4.17;3.57;;;5.30;99.90;5.30;100969.00;;;;4954163;28;116553;-66
2023/04/20 06:39:12;;;;;;;6.63;4.57;;;5.40;99.90;5.30;100964.00;;;;4952640;28;88345;-65
2023/04/20 06:41:38;;;;;;;4.70;3.70;;;5.50;99.90;5.30;100957.00;;;;4956450;28;88966;-65
2023/04/20 06:44:04;;;;;;;4.57;3.30;;;5.50;99.90;5.40;100953.00;;;;4951255;28;88218;-65
2023/04/20 06:46:31;;;;;;;4.07;3.67;;;5.50;99.90;5.40;100964.00;;;;4951790;28;88200;-65
2023/04/20 06:48:58;;;;;;;4.57;3.87;;;5.90;99.90;5.50;100949.00;;;;4955162;28;116999;-64
2023/04/20 06:51:25;;;;;;;4.40;3.57;;;5.60;99.90;5.50;100958.00;;;;4957033;28;87661;-65
2023/04/20 06:53:51;;;;;;;5.03;2.97;;;5.60;99.90;5.50;100965.00;;;;4961120;28;88034;-66
2023/04/20 06:56:16;;;;;;;4.63;3.50;;;5.90;99.90;5.50;100964.00;;;;4952229;28;117453;-66
2023/04/20 06:58:42;;;;;;;3.97;3.10;;;5.60;99.90;5.60;100959.00;;;;4955109;28;117432;-65
2023/04/20 07:01:08;;;;;;;5.53;4.20;;;5.60;99.90;5.70;100963.00;;;;4954029;28;109678;-65
2023/04/20 07:03:33;;;;;;;5.13;4.30;;;5.80;99.90;5.70;100978.00;;;;4956514;28;108216;-66
2023/04/20 07:05:59;;;;;;;6.43;4.43;;;5.80;99.90;5.70;100976.00;;;;4953252;28;88972;-64
2023/04/20 07:08:25;;;;;;;5.07;3.90;;;5.80;99.90;5.70;100984.00;;;;4954300;28;118777;-65
2023/04/20 07:10:51;;;;;;;4.80;3.10;;;5.80;99.90;5.70;100974.00;;;;4956899;28;98457;-65
2023/04/20 07:13:16;;;;;;;4.57;4.17;;;5.80;99.90;5.70;100977.00;;;;4957329;28;88406;-65
2023/04/20 07:15:44;;;;;;;6.60;3.47;;;5.80;99.90;5.70;100978.00;;;;4955575;28;112219;-65
2023/04/20 07:18:10;;;;;;;4.83;3.33;;;6.30;99.90;5.70;100990.00;;;;4950762;28;88064;-65
2023/04/20 07:20:36;;;;;;;6.33;3.40;;;5.80;99.90;5.70;100974.00;;;;4955025;28;88251;-66
2023/04/20 07:23:02;;;;;;;5.00;3.37;;;5.80;99.90;5.70;100985.00;;;;4950598;28;87363;-65
2023/04/20 07:25:30;;;;;;;4.33;3.53;;;5.80;99.90;5.70;100973.00;;;;4954065;28;87690;-65
2023/04/20 07:27:55;;;;;;;5.77;3.47;;;5.90;99.90;5.80;100971.00;;;;4955052;28;88351;-66
2023/04/20 07:30:21;;;;;;;3.97;3.27;;;5.90;99.90;5.90;100978.00;;;;4952577;28;101108;-66
2023/04/20 07:32:48;;;;;;;4.97;3.63;;;6.30;99.90;5.90;100986.00;;;;4954815;28;107892;-65
2023/04/20 07:35:13;;;;;;;4.90;3.67;;;6.00;99.90;6.00;100979.00;;;;4953321;28;117228;-65
2023/04/20 07:37:39;;;;;;;5.07;4.20;;;6.00;99.90;6.10;100975.00;;;;4953024;28;101178;-65
2023/04/20 07:40:06;;;;;;;4.70;3.67;;;6.10;99.90;6.10;100974.00;;;;4950263;28;99687;-65
2023/04/20 07:42:33;;;;;;;5.80;3.03;;;6.20;99.90;6.20;100978.00;;;;4953082;28;87863;-65
2023/04/20 07:44:59;;;;;;;7.30;3.73;;;6.30;99.90;6.30;100981.00;;;;4952829;28;88774;-65
2023/04/20 07:47:25;;;;;;;5.60;4.67;;;6.30;99.90;6.40;100982.00;;;;4956275;28;88356;-67
2023/04/20 07:49:51;;;;;;;6.87;4.07;;;6.50;99.90;6.40;100981.00;;;;4954133;28;88755;-66
2023/04/20 07:52:17;;;;;;;4.27;3.13;;;7.10;99.90;6.50;100979.00;;;;4959423;28;108866;-67
2023/04/20 07:54:46;;;;;;;4.20;3.63;;;6.50;99.90;6.50;100968.00;;;;4949434;28;89734;-65
2023/04/20 07:57:11;;;;;;;4.27;3.10;;;6.60;99.90;6.50;100974.00;;;;4952809;28;93701;-67
2023/04/20 07:59:39;;;;;;;4.60;4.00;;;7.10;99.90;6.50;100976.00;;;;4950070;28;109397;-67
2023/04/20 08:02:05;;;;;;;3.60;2.50;;;7.10;99.90;6.50;100979.00;;;;4956189;28;87884;-66
2023/04/20 08:04:31;;;;;;;4.57;3.43;;;6.60;99.90;6.50;100977.00;;;;4952694;28;117827;-65
2023/04/20 08:06:56;;;;;;;6.47;3.43;;;7.00;99.90;6.50;100977.00;;;;4953796;28;88027;-67
2023/04/20 08:09:22;;;;;;;3.90;3.17;;;6.60;99.90;6.50;100985.00;;;;4952394;28;109893;-64
2023/04/20 08:11:48;;;;;;;4.30;3.13;;;6.50;99.90;6.50;100987.00;;;;4956061;28;87055;-64
2023/04/20 08:14:14;;;;;;;3.13;2.83;;;7.10;99.90;6.50;100990.00;;;;4946961;28;88414;-64
2023/04/20 08:16:40;;;;;;;3.77;3.00;;;6.60;99.90;6.60;100983.00;;;;4953465;28;88708;-65
2023/04/20 08:19:09;;;;;;;5.13;3.07;;;7.20;99.90;6.70;100987.00;;;;4950423;28;110898;-65
2023/04/20 08:21:39;;;;;;;5.97;3.07;;;6.70;99.90;6.80;100986.00;;;;4950828;28;87755;-64
2023/04/20 08:24:06;;;;;;;5.73;2.97;;;7.30;99.90;6.80;100988.00;;;;4954223;28;89237;-64
2023/04/20 08:26:32;;;;;;;3.30;2.93;;;6.90;99.90;6.90;100980.00;;;;4953497;28;102616;-65
2023/04/20 08:28:59;;;;;;;4.00;2.73;;;7.50;99.90;7.00;100982.00;;;;4951233;28;88001;-66
2023/04/20 08:31:25;;;;;;;5.07;3.43;;;7.10;99.90;7.10;100979.00;;;;4953280;28;103255;-65
2023/04/20 08:33:51;;;;;;;7.03;3.73;;;7.60;99.90;7.30;100985.00;;;;4957998;28;87980;-64
2023/04/20 08:36:17;;;;;;;4.83;3.77;;;7.30;99.90;7.40;100985.00;;;;4951394;28;115965;-65
2023/04/20 08:38:43;;;;;;;6.03;4.20;;;7.00;99.90;7.60;100986.00;;;;4952635;28;111621;-65
2023/04/20 08:41:12;;;;;;;6.27;4.10;;;7.60;99.90;7.70;100992.00;;;;4950461;28;87835;-65
2023/04/20 08:43:38;;;;;;;5.40;4.43;;;7.70;99.90;7.70;101006.00;;;;4958235;28;89796;-65
2023/04/20 08:46:04;;;;;;;3.43;3.13;;;7.70;99.90;7.60;101001.00;;;;4956162;28;88952;-66
2023/04/20 08:48:35;;;;;;;8.00;4.47;;;7.70;99.90;7.60;101009.00;;;;4955793;28;87946;-65
2023/04/20 08:51:03;;;;;;;5.70;4.20;;;7.70;99.90;7.60;101015.00;;;;4949211;28;87968;-67
2023/04/20 08:53:32;;;;;;;7.13;4.40;;;7.70;99.90;7.40;101010.00;;;;4954400;28;88962;-67
2023/04/20 08:55:59;;;;;;;5.23;3.63;;;7.60;99.90;7.30;101003.00;;;;4955009;28;88082;-68
2023/04/20 08:58:29;;;;;;;4.27;3.47;;;7.90;99.90;7.30;101012.00;;;;4950448;28;97668;-66
2023/04/20 09:00:56;;;;;;;4.47;4.03;;;7.40;99.90;7.20;101008.00;;;;4954927;28;87245;-66
2023/04/20 09:03:37;;;;;;;5.17;4.10;;;7.30;99.90;7.20;101005.00;;;;4951448;28;88181;-67
2023/04/20 09:06:15;;;;;;;4.53;3.73;;;7.30;99.90;7.20;101013.00;;;;4953569;28;87859;-68
2023/04/20 09:08:42;;;;;;;4.13;3.83;;;7.30;99.90;7.20;101005.00;;;;4987166;27;89040;-66
2023/04/20 09:11:22;;;;;;;4.90;4.20;;;7.80;99.90;7.20;101012.00;;;;4951746;28;87853;-65
2023/04/20 09:14:03;;;;;;;5.23;3.63;;;7.60;99.90;7.30;100998.00;;;;4956047;28;88048;-64
2023/04/20 09:16:30;;;;;;;7.30;4.90;;;7.40;99.90;7.30;101001.00;;;;4951158;28;88223;-66
2023/04/20 09:18:56;;;;;;;7.60;4.27;;;7.40;99.90;7.30;101002.00;;;;4953070;28;87933;-63
2023/04/20 09:21:25;;;;;;;4.90;4.47;;;7.50;99.90;7.40;101004.00;;;;4953570;28;87693;-63
2023/04/20 09:24:05;;;;;;;8.50;5.83;;;7.40;99.90;7.40;101009.00;;;;4947147;28;89124;-63
2023/04/20 09:26:35;;;;;;;5.40;3.97;;;7.50;99.90;7.40;101005.00;;;;4955712;28;87167;-64
2023/04/20 09:29:02;;;;;;;8.20;4.60;;;7.50;99.90;7.40;101008.00;;;;4951110;28;87792;-64
2023/04/20 09:31:28;;;;;;;4.57;4.07;;;7.50;99.90;7.40;101015.00;;;;4948934;28;91481;-65
2023/04/20 09:34:03;;;;;;;6.33;4.73;;;7.50;99.90;7.40;101014.00;;;;4950397;28;90839;-64
2023/04/20 09:36:49;;;;;;;7.63;4.03;;;7.50;99.90;7.30;101008.00;;;;4951888;28;88695;-64
2023/04/20 09:39:20;;;;;;;5.70;4.57;;;7.40;99.90;7.30;101010.00;;;;4953328;28;87783;-64
2023/04/20 09:41:47;;;;;;;4.93;4.20;;;7.80;99.90;7.20;101008.00;;;;4950477;28;88017;-65
2023/04/20 09:44:15;;;;;;;6.77;5.00;;;7.30;99.90;7.20;100995.00;;;;4952148;28;88041;-64
2023/04/20 09:46:42;;;;;;;5.00;4.47;;;7.30;99.90;7.30;100989.00;;;;4948538;28;104588;-64
2023/04/20 09:49:11;;;;;;;8.20;4.87;;;7.30;99.90;7.30;100998.00;;;;4953092;28;87940;-66
2023/04/20 09:51:45;;;;;;;5.17;4.37;;;7.30;99.90;7.30;100986.00;;;;4956456;28;87372;-65
2023/04/20 09:54:13;;;;;;;5.83;4.43;;;7.80;99.90;7.40;100988.00;;;;4951974;28;88336;-65
2023/04/20 09:56:40;;;;;;;8.27;4.07;;;7.40;99.90;7.40;100987.00;;;;4955692;28;88215;-64
2023/04/20 09:59:06;;;;;;;8.13;5.83;;;7.50;99.90;7.40;100993.00;;;;4958386;28;88656;-65
2023/04/20 10:01:34;;;;;;;7.13;4.30;;;8.00;99.90;7.40;100987.00;;;;4956215;28;88010;-65
2023/04/20 10:04:05;;;;;;;8.00;4.13;;;7.50;99.90;7.40;100991.00;;;;4955763;28;89011;-65
2023/04/20 10:06:34;;;;;;;4.77;3.97;;;7.60;99.90;7.40;100987.00;;;;4957638;28;87966;-64
2023/04/20 10:09:07;;;;;;;4.77;4.27;;;7.40;99.90;7.40;100989.00;;;;4959612;28;87991;-64
2023/04/20 10:11:40;;;;;;;7.00;5.30;;;7.50;99.90;7.30;100989.00;;;;4960255;28;87850;-64
2023/04/20 10:14:23;;;;;;;6.70;5.57;;;7.40;99.90;7.40;100991.00;;;;4952995;28;89143;-65
2023/04/20 10:17:28;;;;;;;5.97;4.83;;;7.40;99.90;7.40;100982.00;;;;4953697;28;87089;-63
2023/04/20 10:19:54;;;;;;;6.80;4.57;;;7.50;99.90;7.50;100989.00;;;;4943285;28;87954;-65
2023/04/20 10:22:32;;;;;;;6.60;4.63;;;7.60;99.90;7.50;100983.00;;;;4953859;28;109430;-64
2023/04/20 10:25:15;;;;;;;8.23;5.07;;;7.60;99.90;7.50;100990.00;;;;4956901;28;89234;-62
2023/04/20 10:27:56;;;;;;;11.10;6.40;;;7.60;99.90;7.60;100988.00;;;;4955965;28;87975;-64
2023/04/20 10:30:23;;;;;;;7.23;5.20;;;7.60;99.90;7.60;100978.00;;;;4985035;27;87982;-64
2023/04/20 10:33:02;;;;;;;6.90;4.80;;;7.60;99.90;7.50;100974.00;;;;4950089;28;87976;-63
2023/04/20 10:35:28;;;;;;;5.90;5.20;;;7.60;99.90;7.60;100973.00;;;;4957452;28;88006;-66
2023/04/20 10:37:54;;;;;;;5.03;4.53;;;7.60;99.90;7.60;100964.00;;;;4957894;28;88032;-64
2023/04/20 10:40:26;;;;;;;4.40;4.00;;;7.80;99.90;7.70;100951.00;;;;4952462;28;98032;-66
2023/04/20 10:42:52;;;;;;;5.87;4.93;;;7.70;99.90;7.70;100950.00;;;;4950886;28;109202;-67
2023/04/20 10:45:19;;;;;;;6.83;4.70;;;7.80;99.90;7.80;100942.00;;;;4954250;28;119858;-67
2023/04/20 10:47:45;;;;;;;9.83;5.50;;;7.90;99.90;7.90;100945.00;;;;4955565;28;88575;-64
2023/04/20 10:50:15;;;;;;;7.63;5.43;;;7.90;99.90;8.00;100943.00;;;;4950720;28;110340;-63
2023/04/20 10:52:43;;;;;;;7.37;5.30;;;8.10;99.90;8.00;100947.00;;;;4956698;28;87940;-64
2023/04/20 10:55:24;;;;;;;10.87;6.60;;;8.10;99.90;8.10;100944.00;;;;4955029;28;88140;-65
2023/04/20 10:57:51;;;;;;;7.47;5.53;;;8.10;99.90;8.20;100941.00;;;;4955550;28;88313;-64
2023/04/20 11:00:26;;;;;;;10.33;6.10;;;8.20;99.90;8.30;100938.00;;;;4957555;28;91277;-64